createdAt,value
2018-08-12T00:01:22.368Z,7.20
2018-08-12T00:03:52.925Z,7.03
2018-08-12T00:06:22.237Z,7.23
2018-08-12T00:08:51.444Z,7.37
2018-08-12T00:11:20.762Z,7.80
2018-08-12T00:13:49.983Z,7.40
2018-08-12T00:16:19.126Z,7.70
2018-08-12T00:18:48.396Z,7.57
2018-08-12T00:21:17.556Z,7.60
2018-08-12T00:23:46.757Z,7.50
2018-08-12T00:26:16.200Z,7.80
2018-08-12T00:28:45.469Z,8.50
2018-08-12T00:31:14.788Z,7.80
2018-08-12T00:33:43.914Z,8.50
2018-08-12T00:36:13.178Z,8.00
2018-08-12T00:38:42.917Z,8.00
2018-08-12T00:41:12.098Z,8.40
2018-08-12T00:43:41.243Z,8.70
2018-08-12T00:46:10.447Z,8.87
2018-08-12T00:48:39.692Z,8.70
2018-08-12T00:51:09.009Z,8.87
2018-08-12T00:53:38.256Z,8.40
2018-08-12T00:56:08.195Z,8.67
2018-08-12T00:58:37.428Z,8.90
2018-08-12T01:01:06.723Z,9.23
2018-08-12T01:03:35.962Z,9.30
2018-08-12T01:06:05.238Z,9.30
2018-08-12T01:08:34.434Z,9.60
2018-08-12T01:11:03.652Z,10.77
2018-08-12T01:13:32.924Z,11.10
2018-08-12T01:16:02.035Z,12.27
2018-08-12T01:18:31.515Z,13.07
2018-08-12T01:21:00.731Z,12.70
2018-08-12T01:23:30.118Z,12.30
2018-08-12T01:25:59.270Z,13.13
2018-08-12T01:28:28.477Z,13.13
2018-08-12T01:30:57.692Z,14.63
2018-08-12T01:33:26.937Z,13.30
2018-08-12T01:35:56.313Z,14.33
2018-08-12T01:38:25.412Z,13.30
2018-08-12T01:40:54.665Z,14.60
2018-08-12T01:43:23.811Z,13.77
2018-08-12T01:45:53.040Z,15.73
2018-08-12T01:48:23.047Z,15.10
2018-08-12T01:50:52.210Z,16.83
2018-08-12T01:53:21.490Z,16.63
2018-08-12T01:55:50.691Z,17.33
2018-08-12T01:58:19.809Z,17.20
2018-08-12T02:00:49.195Z,18.33
2018-08-12T02:03:18.426Z,18.33
2018-08-12T02:05:47.600Z,17.73
2018-08-12T02:08:16.763Z,17.67
2018-08-12T02:10:45.944Z,16.43
2018-08-12T02:13:15.127Z,15.97
2018-08-12T02:15:44.423Z,16.17
2018-08-12T02:18:13.556Z,15.27
2018-08-12T02:20:43.641Z,13.50
2018-08-12T02:23:12.827Z,13.57
2018-08-12T02:25:42.039Z,13.63
2018-08-12T02:28:11.225Z,12.53
2018-08-12T02:30:41.271Z,13.37
2018-08-12T02:33:11.203Z,13.07
2018-08-12T02:35:41.375Z,11.47
2018-08-12T02:38:11.186Z,12.27
2018-08-12T02:40:40.375Z,12.67
2018-08-12T02:43:09.561Z,11.73
2018-08-12T02:45:38.743Z,10.77
2018-08-12T02:48:07.916Z,11.03
2018-08-12T02:50:37.634Z,11.37
2018-08-12T02:53:07.431Z,11.50
2018-08-12T02:55:36.600Z,11.43
2018-08-12T02:58:05.795Z,11.50
2018-08-12T03:00:35.062Z,11.53
2018-08-12T03:03:04.261Z,10.53
2018-08-12T03:05:33.464Z,11.50
2018-08-12T03:08:02.694Z,11.90
2018-08-12T03:10:31.998Z,11.40
2018-08-12T03:13:01.182Z,11.10
2018-08-12T03:15:30.384Z,11.13
2018-08-12T03:17:59.516Z,11.40
2018-08-12T03:20:29.341Z,10.83
2018-08-12T03:22:58.632Z,11.60
2018-08-12T03:25:27.812Z,11.23
2018-08-12T03:27:57.049Z,10.50
2018-08-12T03:30:26.448Z,11.30
2018-08-12T03:32:55.568Z,11.30
2018-08-12T03:35:24.746Z,11.80
2018-08-12T03:37:53.951Z,11.93
2018-08-12T03:40:23.107Z,11.67
2018-08-12T03:42:52.303Z,11.73
2018-08-12T03:45:22.025Z,11.37
2018-08-12T03:47:51.276Z,11.03
2018-08-12T03:50:20.458Z,11.00
2018-08-12T03:52:49.676Z,11.37
2018-08-12T03:55:18.932Z,11.07
2018-08-12T03:57:48.108Z,10.70
2018-08-12T04:00:18.514Z,10.67
2018-08-12T04:02:48.731Z,11.20
2018-08-12T04:05:18.838Z,11.40
2018-08-12T04:07:48.002Z,10.80
2018-08-12T04:10:17.208Z,11.33
2018-08-12T04:12:46.393Z,11.70
2018-08-12T04:15:15.574Z,11.03
2018-08-12T04:17:44.826Z,11.20
2018-08-12T04:20:14.001Z,10.67
2018-08-12T04:22:43.221Z,10.10
2018-08-12T04:25:12.353Z,9.97
2018-08-12T04:27:41.614Z,9.63
2018-08-12T04:30:11.638Z,9.17
2018-08-12T04:32:40.868Z,9.60
2018-08-12T04:35:10.107Z,9.30
2018-08-12T04:37:39.227Z,9.10
2018-08-12T04:40:08.684Z,8.70
2018-08-12T04:42:41.075Z,8.77
2018-08-12T04:45:10.250Z,8.67
2018-08-12T04:47:39.413Z,8.87
2018-08-12T04:50:09.038Z,8.47
2018-08-12T04:52:38.294Z,9.33
2018-08-12T04:55:07.929Z,9.43
2018-08-12T04:57:38.175Z,8.63
2018-08-12T05:00:08.372Z,8.77
2018-08-12T05:02:37.867Z,9.27
2018-08-12T05:05:07.544Z,9.13
2018-08-12T05:07:36.678Z,9.40
2018-08-12T05:10:06.609Z,9.33
2018-08-12T05:12:35.794Z,9.00
2018-08-12T05:15:06.747Z,9.43
2018-08-12T05:17:35.970Z,9.20
2018-08-12T05:20:06.892Z,9.03
2018-08-12T05:22:36.227Z,9.20
2018-08-12T05:25:05.537Z,8.77
2018-08-12T05:27:35.113Z,9.27
2018-08-12T05:30:05.541Z,8.73
2018-08-12T05:32:35.345Z,9.00
2018-08-12T05:35:05.554Z,9.07
2018-08-12T05:37:34.810Z,8.77
2018-08-12T05:40:05.254Z,9.33
2018-08-12T05:42:34.660Z,9.07
2018-08-12T05:45:04.471Z,8.63
2018-08-12T05:47:33.611Z,9.53
2018-08-12T05:50:02.869Z,9.20
2018-08-12T05:52:32.192Z,9.53
2018-08-12T05:55:01.329Z,9.27
2018-08-12T05:57:30.600Z,8.63
2018-08-12T05:59:59.733Z,9.00
2018-08-12T06:02:29.029Z,8.90
2018-08-12T06:04:58.204Z,8.47
2018-08-12T06:07:27.463Z,8.87
2018-08-12T06:09:56.676Z,8.87
2018-08-12T06:12:25.847Z,8.50
2018-08-12T06:14:55.156Z,8.20
2018-08-12T06:17:24.419Z,8.40
2018-08-12T06:19:53.599Z,8.90
2018-08-12T06:22:22.749Z,8.43
2018-08-12T06:24:52.721Z,7.47
2018-08-12T06:27:21.880Z,7.83
2018-08-12T06:29:51.133Z,8.50
2018-08-12T06:32:22.400Z,7.40
2018-08-12T06:34:51.575Z,7.50
2018-08-12T06:37:20.723Z,7.20
2018-08-12T06:39:49.901Z,7.20
2018-08-12T06:42:19.164Z,7.03
2018-08-12T06:44:48.423Z,7.33
2018-08-12T06:47:17.597Z,7.20
2018-08-12T06:49:46.895Z,7.23
2018-08-12T06:52:16.113Z,7.20
2018-08-12T06:54:45.351Z,7.00
2018-08-12T06:57:14.539Z,7.47
2018-08-12T06:59:43.769Z,7.30
2018-08-12T07:02:13.027Z,6.87
2018-08-12T07:04:42.296Z,7.03
2018-08-12T07:07:11.429Z,7.20
2018-08-12T07:09:40.644Z,7.03
2018-08-12T07:12:11.512Z,7.20
2018-08-12T07:14:40.692Z,7.80
2018-08-12T07:17:09.872Z,7.53
2018-08-12T07:19:39.079Z,7.00
2018-08-12T07:22:08.364Z,7.00
2018-08-12T07:24:37.574Z,6.73
2018-08-12T07:27:06.826Z,6.77
2018-08-12T07:29:36.044Z,6.87
2018-08-12T07:32:05.140Z,6.80
2018-08-12T07:34:34.410Z,6.63
2018-08-12T07:37:03.640Z,6.87
2018-08-12T07:39:32.941Z,6.63
2018-08-12T07:42:04.842Z,7.03
2018-08-12T07:44:34.035Z,7.27
2018-08-12T07:47:03.228Z,7.77
2018-08-12T07:49:32.469Z,7.47
2018-08-12T07:52:01.744Z,6.93
2018-08-12T07:54:31.698Z,7.10
2018-08-12T07:57:00.986Z,7.60
2018-08-12T07:59:30.406Z,7.70
2018-08-12T08:01:59.623Z,7.53
2018-08-12T08:04:28.814Z,7.53
2018-08-12T08:06:58.025Z,8.33
2018-08-12T08:09:27.200Z,8.20
2018-08-12T08:11:56.398Z,8.87
2018-08-12T08:14:25.666Z,9.00
2018-08-12T08:16:54.889Z,9.17
2018-08-12T08:19:24.053Z,8.83
2018-08-12T08:21:53.272Z,8.93
2018-08-12T08:24:22.393Z,9.10
2018-08-12T08:26:51.756Z,8.30
2018-08-12T08:29:21.044Z,9.50
2018-08-12T08:31:50.501Z,9.07
2018-08-12T08:34:19.437Z,9.13
2018-08-12T08:36:48.587Z,8.17
2018-08-12T08:39:17.826Z,8.47
2018-08-12T08:41:47.084Z,8.17
2018-08-12T08:44:16.269Z,8.47
2018-08-12T08:46:45.512Z,7.80
2018-08-12T08:49:14.653Z,8.20
2018-08-12T08:51:43.882Z,8.30
2018-08-12T08:54:13.164Z,8.23
2018-08-12T08:56:42.330Z,8.20
2018-08-12T08:59:11.624Z,8.40
2018-08-12T09:01:43.791Z,8.20
2018-08-12T09:04:12.994Z,7.60
2018-08-12T09:06:42.155Z,7.30
2018-08-12T09:09:14.294Z,7.13
2018-08-12T09:11:43.656Z,7.30
2018-08-12T09:14:12.958Z,7.10
2018-08-12T09:16:42.327Z,6.87
2018-08-12T09:19:11.506Z,6.97
2018-08-12T09:21:41.482Z,6.93
2018-08-12T09:24:10.615Z,7.13
2018-08-12T09:26:39.815Z,6.50
2018-08-12T09:29:09.157Z,6.20
2018-08-12T09:31:38.388Z,6.70
2018-08-12T09:34:07.615Z,6.70
2018-08-12T09:36:36.812Z,6.80
2018-08-12T09:39:09.558Z,7.20
2018-08-12T09:41:39.336Z,6.97
2018-08-12T09:44:08.763Z,7.03
2018-08-12T09:46:37.977Z,6.60
2018-08-12T09:49:07.149Z,6.63
2018-08-12T09:51:36.481Z,6.60
2018-08-12T09:54:05.546Z,6.77
2018-08-12T09:56:34.932Z,6.27
2018-08-12T09:59:04.284Z,6.97
2018-08-12T10:01:33.757Z,6.47
2018-08-12T10:04:02.883Z,6.40
2018-08-12T10:06:33.342Z,6.50
2018-08-12T10:09:02.522Z,6.47
2018-08-12T10:11:32.823Z,6.33
2018-08-12T10:14:02.057Z,6.40
2018-08-12T10:16:31.387Z,6.30
2018-08-12T10:19:00.625Z,5.83
2018-08-12T10:21:30.505Z,5.90
2018-08-12T10:23:59.820Z,5.40
2018-08-12T10:26:29.033Z,5.30
2018-08-12T10:28:59.192Z,5.47
2018-08-12T10:31:28.383Z,5.43
2018-08-12T10:33:57.672Z,5.30
2018-08-12T10:36:26.891Z,5.40
2018-08-12T10:38:56.075Z,5.07
2018-08-12T10:41:25.401Z,4.80
2018-08-12T10:43:54.587Z,4.93
2018-08-12T10:46:23.768Z,5.40
2018-08-12T10:48:52.925Z,5.43
2018-08-12T10:51:22.898Z,4.73
2018-08-12T10:53:52.140Z,5.77
2018-08-12T10:56:21.447Z,5.00
2018-08-12T10:58:50.992Z,5.23
2018-08-12T11:01:20.221Z,5.13
2018-08-12T11:03:49.470Z,5.10
2018-08-12T11:06:18.781Z,5.33
2018-08-12T11:08:48.020Z,5.10
2018-08-12T11:11:17.826Z,5.07
2018-08-12T11:13:47.036Z,4.97
2018-08-12T11:16:16.187Z,4.00
2018-08-12T11:18:45.372Z,3.63
2018-08-12T11:21:14.495Z,3.37
2018-08-12T11:23:43.765Z,3.23
2018-08-12T11:26:13.034Z,3.33
2018-08-12T11:28:43.267Z,2.93
2018-08-12T11:31:12.440Z,3.13
2018-08-12T11:33:41.667Z,2.77
2018-08-12T11:36:10.850Z,2.63
2018-08-12T11:38:40.176Z,2.33
2018-08-12T11:41:09.525Z,2.27
2018-08-12T11:43:38.740Z,2.37
2018-08-12T11:46:08.920Z,2.80
2018-08-12T11:48:38.171Z,2.47
2018-08-12T11:51:07.509Z,2.07
2018-08-12T11:53:36.821Z,2.20
2018-08-12T11:56:06.790Z,2.43
2018-08-12T11:58:36.058Z,2.50
2018-08-12T12:01:05.408Z,2.70
2018-08-12T12:03:36.464Z,2.90
2018-08-12T12:06:05.992Z,2.93
2018-08-12T12:08:35.347Z,2.60
2018-08-12T12:11:04.530Z,2.57
2018-08-12T12:13:33.949Z,2.67
2018-08-12T12:16:03.401Z,2.93
2018-08-12T12:18:33.517Z,2.93
2018-08-12T12:21:02.743Z,2.83
2018-08-12T12:23:32.052Z,2.93
2018-08-12T12:26:01.265Z,2.90
2018-08-12T12:28:30.576Z,2.90
2018-08-12T12:30:59.716Z,3.00
2018-08-12T12:33:28.938Z,3.20
2018-08-12T12:35:58.548Z,3.20
2018-08-12T12:38:27.808Z,3.30
2018-08-12T12:40:57.139Z,2.80
2018-08-12T12:43:26.620Z,3.57
2018-08-12T12:45:56.273Z,2.87
2018-08-12T12:48:25.737Z,3.10
2018-08-12T12:50:57.361Z,3.33
2018-08-12T12:53:26.582Z,3.00
2018-08-12T12:55:55.851Z,3.27
2018-08-12T12:58:25.307Z,3.20
2018-08-12T13:00:55.478Z,3.60
2018-08-12T13:03:24.653Z,3.30
2018-08-12T13:05:53.933Z,3.80
2018-08-12T13:08:23.461Z,3.57
2018-08-12T13:10:52.749Z,3.50
2018-08-12T13:13:22.125Z,3.90
2018-08-12T13:15:52.409Z,3.33
2018-08-12T13:18:21.712Z,3.20
2018-08-12T13:20:50.939Z,3.20
2018-08-12T13:23:20.814Z,3.40
2018-08-12T13:25:50.184Z,3.00
2018-08-12T13:28:26.313Z,3.10
2018-08-12T13:30:56.036Z,2.70
2018-08-12T13:33:25.451Z,2.67
2018-08-12T13:35:54.754Z,2.60
2018-08-12T13:38:24.344Z,3.00
2018-08-12T13:40:54.231Z,2.70
2018-08-12T13:43:23.827Z,2.53
2018-08-12T13:45:52.984Z,3.10
2018-08-12T13:48:23.687Z,2.73
2018-08-12T13:50:55.240Z,3.00
2018-08-12T13:53:24.746Z,2.90
2018-08-12T13:55:54.352Z,3.27
2018-08-12T13:58:24.156Z,3.10
2018-08-12T14:00:53.432Z,2.80
2018-08-12T14:03:23.002Z,2.80
2018-08-12T14:05:52.424Z,2.80
2018-08-12T14:08:23.091Z,2.70
2018-08-12T14:10:52.719Z,2.53
2018-08-12T14:13:22.163Z,2.40
2018-08-12T14:15:51.409Z,2.83
2018-08-12T14:18:20.565Z,2.70
2018-08-12T14:20:49.863Z,3.03
2018-08-12T14:23:19.343Z,2.70
2018-08-12T14:25:48.612Z,2.97
2018-08-12T14:28:18.490Z,2.43
2018-08-12T14:30:47.994Z,2.20
2018-08-12T14:33:17.166Z,2.43
2018-08-12T14:35:46.848Z,2.23
2018-08-12T14:38:16.316Z,2.23
2018-08-12T14:40:46.746Z,2.90
2018-08-12T14:43:16.004Z,2.50
2018-08-12T14:45:45.884Z,2.40
2018-08-12T14:48:15.102Z,2.33
2018-08-12T14:50:44.563Z,2.40
2018-08-12T14:53:13.984Z,2.47
2018-08-12T14:55:43.717Z,2.60
2018-08-12T14:58:12.910Z,2.30
2018-08-12T15:00:42.746Z,2.40
2018-08-12T15:03:12.859Z,2.50
2018-08-12T15:05:45.313Z,2.70
2018-08-12T15:08:15.735Z,2.03
2018-08-12T15:10:44.994Z,2.40
2018-08-12T15:13:16.792Z,2.40
2018-08-12T15:15:47.703Z,2.50
2018-08-12T15:18:16.891Z,2.40
2018-08-12T15:20:46.542Z,2.17
2018-08-12T15:23:15.911Z,2.10
2018-08-12T15:25:47.052Z,2.10
2018-08-12T15:28:16.317Z,1.90
2018-08-12T15:30:45.869Z,1.93
2018-08-12T15:33:17.509Z,1.90
2018-08-12T15:35:47.084Z,1.93
2018-08-12T15:38:18.981Z,2.20
2018-08-12T15:40:50.069Z,2.40
2018-08-12T15:43:19.219Z,2.20
2018-08-12T15:45:48.705Z,2.20
2018-08-12T15:48:20.867Z,2.13
2018-08-12T15:50:50.052Z,2.10
2018-08-12T15:53:20.971Z,4.47
2018-08-12T15:55:50.140Z,2.80
2018-08-12T15:58:19.350Z,2.33
2018-08-12T16:00:50.264Z,2.27
2018-08-12T16:03:19.591Z,2.10
2018-08-12T16:05:49.049Z,2.07
2018-08-12T16:08:19.105Z,2.97
2018-08-12T16:10:49.810Z,2.40
2018-08-12T16:13:19.943Z,2.90
2018-08-12T16:15:49.543Z,2.70
2018-08-12T16:18:19.072Z,2.60
2018-08-12T16:20:48.252Z,2.80
2018-08-12T16:23:17.462Z,2.80
2018-08-12T16:25:46.984Z,2.80
2018-08-12T16:28:16.518Z,2.50
2018-08-12T16:30:45.757Z,2.53
2018-08-12T16:33:15.348Z,2.70
2018-08-12T16:35:46.201Z,2.93
2018-08-12T16:38:15.344Z,3.00
2018-08-12T16:40:45.639Z,2.80
2018-08-12T16:43:15.142Z,2.57
2018-08-12T16:45:49.188Z,2.77
2018-08-12T16:48:18.749Z,2.80
2018-08-12T16:50:48.198Z,3.20
2018-08-12T16:53:17.528Z,3.00
2018-08-12T16:55:46.781Z,2.83
2018-08-12T16:58:17.696Z,2.90
2018-08-12T17:00:48.815Z,3.00
2018-08-12T17:03:18.021Z,2.50
2018-08-12T17:05:47.266Z,2.80
2018-08-12T17:08:17.350Z,3.07
2018-08-12T17:10:46.632Z,3.10
2018-08-12T17:13:15.847Z,2.70
2018-08-12T17:15:45.315Z,2.73
2018-08-12T17:18:15.233Z,2.93
2018-08-12T17:20:44.528Z,2.87
2018-08-12T17:23:13.721Z,2.70
2018-08-12T17:25:43.288Z,2.63
2018-08-12T17:28:12.652Z,3.40
2018-08-12T17:30:41.854Z,3.23
2018-08-12T17:33:11.345Z,2.93
2018-08-12T17:35:40.513Z,2.93
2018-08-12T17:38:10.123Z,2.77
2018-08-12T17:40:40.630Z,2.90
2018-08-12T17:43:09.959Z,2.77
2018-08-12T17:45:39.393Z,2.60
2018-08-12T17:48:08.778Z,2.57
2018-08-12T17:50:37.978Z,2.40
2018-08-12T17:53:07.876Z,2.30
2018-08-12T17:55:37.826Z,2.23
2018-08-12T17:58:07.043Z,2.67
2018-08-12T18:00:36.298Z,2.50
2018-08-12T18:03:06.328Z,2.53
2018-08-12T18:05:35.877Z,2.77
2018-08-12T18:08:05.588Z,2.53
2018-08-12T18:10:35.237Z,2.70
2018-08-12T18:13:05.033Z,2.83
2018-08-12T18:15:35.760Z,2.67
2018-08-12T18:18:06.768Z,2.83
2018-08-12T18:20:36.067Z,3.00
2018-08-12T18:23:05.477Z,2.83
2018-08-12T18:25:34.843Z,3.20
2018-08-12T18:28:04.167Z,3.17
2018-08-12T18:30:33.896Z,3.40
2018-08-12T18:33:03.744Z,2.70
2018-08-12T18:35:33.587Z,3.30
2018-08-12T18:38:03.352Z,2.97
2018-08-12T18:40:33.182Z,3.30
2018-08-12T18:43:02.661Z,2.90
2018-08-12T18:45:32.053Z,3.10
2018-08-12T18:48:01.351Z,3.57
2018-08-12T18:50:32.156Z,3.30
2018-08-12T18:53:03.067Z,4.30
2018-08-12T18:55:32.828Z,3.97
2018-08-12T18:58:02.925Z,3.73
2018-08-12T19:00:32.944Z,4.40
2018-08-12T19:03:03.136Z,4.47
2018-08-12T19:05:32.999Z,4.30
2018-08-12T19:08:02.654Z,3.90
2018-08-12T19:10:32.350Z,7.10
2018-08-12T19:13:03.452Z,6.23
2018-08-12T19:15:33.129Z,4.37
2018-08-12T19:18:02.932Z,4.50
2018-08-12T19:20:32.187Z,5.00
2018-08-12T19:23:01.881Z,6.37
2018-08-12T19:25:31.404Z,7.90
2018-08-12T19:28:00.621Z,7.60
2018-08-12T19:30:31.278Z,6.50
2018-08-12T19:33:00.990Z,6.17
2018-08-12T19:35:30.283Z,5.90
2018-08-12T19:38:02.386Z,6.20
2018-08-12T19:40:31.647Z,5.33
2018-08-12T19:43:01.588Z,4.93
2018-08-12T19:45:30.928Z,4.90
2018-08-12T19:48:00.807Z,5.10
2018-08-12T19:50:30.212Z,4.67
2018-08-12T19:52:59.379Z,4.70
2018-08-12T19:55:28.886Z,4.50
2018-08-12T19:57:58.145Z,4.97
2018-08-12T20:00:27.771Z,4.83
2018-08-12T20:02:57.300Z,5.37
2018-08-12T20:05:26.987Z,5.10
2018-08-12T20:07:56.207Z,5.43
2018-08-12T20:10:25.718Z,5.20
2018-08-12T20:12:54.975Z,5.30
2018-08-12T20:15:24.426Z,5.70
2018-08-12T20:17:54.006Z,5.63
2018-08-12T20:20:23.555Z,5.37
2018-08-12T20:22:54.567Z,5.63
2018-08-12T20:25:23.773Z,5.63
2018-08-12T20:27:52.996Z,5.17
2018-08-12T20:30:22.472Z,5.30
2018-08-12T20:32:51.759Z,5.37
2018-08-12T20:35:21.173Z,5.93
2018-08-12T20:37:50.594Z,5.67
2018-08-12T20:40:20.335Z,5.43
2018-08-12T20:42:49.532Z,5.60
2018-08-12T20:45:18.876Z,5.67
2018-08-12T20:47:48.151Z,5.60
2018-08-12T20:50:17.354Z,6.03
2018-08-12T20:52:46.558Z,5.87
2018-08-12T20:55:16.049Z,7.73
2018-08-12T20:57:45.340Z,10.00
2018-08-12T21:00:15.143Z,9.80
2018-08-12T21:02:44.319Z,7.40
2018-08-12T21:05:13.565Z,7.90
2018-08-12T21:07:42.756Z,7.40
2018-08-12T21:10:12.538Z,7.50
2018-08-12T21:12:42.201Z,7.50
2018-08-12T21:15:11.467Z,7.50
2018-08-12T21:17:40.637Z,7.20
2018-08-12T21:20:09.905Z,7.10
2018-08-12T21:22:39.557Z,7.13
2018-08-12T21:25:09.081Z,6.90
2018-08-12T21:27:38.656Z,7.53
2018-08-12T21:30:07.867Z,7.77
2018-08-12T21:32:37.005Z,6.83
2018-08-12T21:35:06.441Z,7.20
2018-08-12T21:37:35.680Z,8.10
2018-08-12T21:40:05.172Z,7.57
2018-08-12T21:42:34.282Z,7.67
2018-08-12T21:45:04.466Z,7.90
2018-08-12T21:47:34.431Z,7.40
2018-08-12T21:50:03.689Z,7.60
2018-08-12T21:52:32.959Z,8.50
2018-08-12T21:55:02.330Z,7.47
2018-08-12T21:57:31.728Z,7.37
2018-08-12T22:00:00.901Z,8.47
2018-08-12T22:02:30.224Z,7.43
2018-08-12T22:04:59.448Z,7.63
2018-08-12T22:07:28.652Z,7.40
2018-08-12T22:09:57.843Z,7.00
2018-08-12T22:12:27.030Z,7.07
2018-08-12T22:14:56.248Z,7.30
2018-08-12T22:17:25.490Z,7.50
2018-08-12T22:19:55.105Z,7.80
2018-08-12T22:22:24.538Z,7.80
2018-08-12T22:24:53.676Z,8.37
2018-08-12T22:27:22.849Z,9.23
2018-08-12T22:29:52.058Z,8.20
2018-08-12T22:32:21.170Z,8.27
2018-08-12T22:34:50.359Z,9.50
2018-08-12T22:37:19.845Z,9.93
2018-08-12T22:39:48.972Z,9.50
2018-08-12T22:42:18.156Z,10.43
2018-08-12T22:44:47.327Z,10.00
2018-08-12T22:47:16.616Z,10.33
2018-08-12T22:49:45.819Z,10.50
2018-08-12T22:52:15.034Z,9.97
2018-08-12T22:54:44.267Z,10.43
2018-08-12T22:57:13.442Z,10.47
2018-08-12T22:59:42.635Z,10.27
2018-08-12T23:02:11.931Z,10.07
2018-08-12T23:04:41.099Z,10.40
2018-08-12T23:07:10.392Z,10.30
2018-08-12T23:09:39.539Z,9.97
2018-08-12T23:12:08.803Z,9.57
2018-08-12T23:14:37.990Z,9.40
2018-08-12T23:17:07.255Z,8.67
2018-08-12T23:19:36.489Z,8.90
2018-08-12T23:22:05.687Z,8.77
2018-08-12T23:24:34.848Z,9.10
2018-08-12T23:27:04.156Z,9.57
2018-08-12T23:29:33.359Z,8.90
2018-08-12T23:32:02.585Z,8.63
2018-08-12T23:34:31.807Z,8.10
2018-08-12T23:37:01.030Z,7.80
2018-08-12T23:39:30.282Z,9.10
2018-08-12T23:41:59.504Z,8.63
2018-08-12T23:44:28.746Z,8.47
2018-08-12T23:46:57.877Z,8.20
2018-08-12T23:49:27.088Z,8.93
2018-08-12T23:51:56.349Z,9.17
2018-08-12T23:54:25.496Z,8.47
2018-08-12T23:56:54.751Z,8.60
2018-08-12T23:59:23.985Z,9.37
